createdAt,value
2023-03-21T00:02:27.815Z,9.03
2023-03-21T00:05:32.507Z,8.73
2023-03-21T00:08:36.367Z,9.55
2023-03-21T00:11:40.471Z,8.85
2023-03-21T00:14:44.822Z,9.32
2023-03-21T00:17:50.849Z,8.47
2023-03-21T00:21:29.290Z,9.13
2023-03-21T00:24:23.335Z,8.93
2023-03-21T00:30:52.010Z,8.90
2023-03-21T00:33:57.628Z,8.07
2023-03-21T00:37:01.763Z,8.85
2023-03-21T00:40:23.047Z,8.70
2023-03-21T00:43:30.209Z,9.35
2023-03-21T00:46:44.054Z,9.05
2023-03-21T00:49:52.498Z,8.83
2023-03-21T00:52:55.896Z,8.50
2023-03-21T00:56:01.030Z,9.10
2023-03-21T00:59:04.584Z,9.18
2023-03-21T01:02:07.763Z,8.85
2023-03-21T01:05:12.592Z,8.20
2023-03-21T01:08:26.475Z,8.15
2023-03-21T01:11:31.388Z,8.68
2023-03-21T01:14:34.543Z,8.27
2023-03-21T01:17:38.644Z,8.27
2023-03-21T01:20:43.643Z,8.47
2023-03-21T01:23:47.186Z,8.68
2023-03-21T01:26:50.478Z,8.15
2023-03-21T01:29:53.891Z,8.45
2023-03-21T01:32:57.546Z,8.52
2023-03-21T01:36:12.320Z,8.13
2023-03-21T01:39:16.996Z,8.43
2023-03-21T01:42:20.436Z,8.40
2023-03-21T01:46:01.366Z,8.20
2023-03-21T01:49:27.693Z,8.55
2023-03-21T01:52:42.667Z,8.50
2023-03-21T01:55:49.843Z,8.13
2023-03-21T01:59:38.358Z,8.45
2023-03-21T02:02:58.063Z,8.50
2023-03-21T02:06:36.753Z,8.63
2023-03-21T02:09:52.183Z,8.10
2023-03-21T02:13:08.209Z,8.20
2023-03-21T02:16:27.527Z,7.90
2023-03-21T02:19:56.738Z,8.57
2023-03-21T02:23:16.917Z,8.65
2023-03-21T02:26:20.260Z,9.03
2023-03-21T02:29:36.704Z,8.90
2023-03-21T02:33:07.031Z,8.60
2023-03-21T02:36:30.541Z,8.73
2023-03-21T02:40:09.364Z,9.13
2023-03-21T02:43:37.283Z,8.87
2023-03-21T02:47:05.242Z,8.98
2023-03-21T02:50:21.169Z,8.68
2023-03-21T02:53:28.598Z,8.85
2023-03-21T02:56:34.750Z,9.38
2023-03-21T02:59:51.675Z,9.17
2023-03-21T03:03:10.080Z,9.50
2023-03-21T03:06:46.279Z,8.98
2023-03-21T03:10:01.088Z,8.98
2023-03-21T03:13:35.496Z,9.18
2023-03-21T03:17:05.158Z,8.90
2023-03-21T03:20:59.585Z,9.00
2023-03-21T03:24:26.265Z,9.15
2023-03-21T03:27:35.339Z,9.45
2023-03-21T03:30:48.832Z,9.20
2023-03-21T03:34:10.426Z,9.17
2023-03-21T03:37:21.883Z,9.30
2023-03-21T03:40:44.091Z,8.82
2023-03-21T03:44:02.442Z,8.82
2023-03-21T03:47:26.382Z,9.00
2023-03-21T03:50:46.689Z,9.50
2023-03-21T03:54:06.515Z,9.90
2023-03-21T03:57:12.511Z,8.75
2023-03-21T04:00:17.377Z,9.50
2023-03-21T04:03:20.847Z,8.90
2023-03-21T04:06:26.159Z,8.97
2023-03-21T04:09:43.112Z,9.38
2023-03-21T04:12:49.795Z,9.15
2023-03-21T04:16:11.845Z,9.93
2023-03-21T04:19:16.166Z,9.05
2023-03-21T04:22:20.959Z,9.20
2023-03-21T04:25:32.341Z,9.30
2023-03-21T04:28:38.132Z,9.27
2023-03-21T04:32:02.028Z,9.10
2023-03-21T04:35:06.636Z,8.63
2023-03-21T04:38:09.870Z,9.07
2023-03-21T04:41:13.195Z,9.13
2023-03-21T04:44:18.001Z,8.45
2023-03-21T04:47:22.542Z,8.57
2023-03-21T04:50:26.993Z,8.40
2023-03-21T04:53:30.612Z,8.70
2023-03-21T04:56:34.213Z,8.82
2023-03-21T04:59:37.788Z,8.93
2023-03-21T05:02:41.232Z,9.00
2023-03-21T05:05:44.553Z,8.43
2023-03-21T05:08:47.760Z,8.63
2023-03-21T05:11:51.755Z,9.38
2023-03-21T05:14:55.224Z,8.68
2023-03-21T05:18:11.054Z,8.50
2023-03-21T05:21:23.394Z,9.35
2023-03-21T05:24:26.658Z,8.67
2023-03-21T05:27:45.121Z,8.73
2023-03-21T05:30:53.704Z,8.77
2023-03-21T05:33:57.259Z,8.57
2023-03-21T05:37:01.687Z,8.18
2023-03-21T05:40:21.625Z,8.73
2023-03-21T05:43:25.629Z,9.18
2023-03-21T05:46:29.582Z,8.38
2023-03-21T05:49:33.404Z,9.10
2023-03-21T05:52:38.341Z,9.00
2023-03-21T05:55:48.085Z,8.67
2023-03-21T05:59:07.443Z,9.25
2023-03-21T06:02:17.366Z,9.52
2023-03-21T06:05:20.760Z,11.77
2023-03-21T06:08:24.302Z,9.10
2023-03-21T06:11:31.306Z,9.60
2023-03-21T06:14:54.767Z,8.63
2023-03-21T06:18:05.865Z,9.20
2023-03-21T06:21:10.665Z,8.68
2023-03-21T06:24:17.952Z,9.02
2023-03-21T06:27:21.374Z,8.87
2023-03-21T06:30:27.948Z,8.85
2023-03-21T06:33:42.017Z,10.20
2023-03-21T06:36:46.841Z,9.15
2023-03-21T06:39:53.227Z,9.15
2023-03-21T06:42:58.560Z,9.20
2023-03-21T06:46:03.831Z,7.90
2023-03-21T06:49:10.249Z,8.20
2023-03-21T06:52:14.080Z,8.15
2023-03-21T06:55:23.124Z,7.78
2023-03-21T06:58:27.210Z,9.50
2023-03-21T07:01:31.718Z,7.97
2023-03-21T07:04:50.459Z,7.43
2023-03-21T07:08:04.973Z,8.05
2023-03-21T07:11:49.038Z,10.38
2023-03-21T07:15:29.214Z,10.57
2023-03-21T07:18:38.958Z,10.37
2023-03-21T07:21:53.307Z,9.23
2023-03-21T07:25:04.808Z,8.75
2023-03-21T07:28:15.568Z,8.63
2023-03-21T07:31:23.613Z,8.13
2023-03-21T07:34:33.990Z,8.10
2023-03-21T07:37:42.051Z,9.77
2023-03-21T07:40:50.614Z,8.38
2023-03-21T07:43:57.152Z,8.30
2023-03-21T07:47:08.715Z,8.33
2023-03-21T07:50:12.652Z,7.87
2023-03-21T07:53:16.674Z,7.97
2023-03-21T07:56:20.238Z,7.72
2023-03-21T07:59:23.978Z,8.43
2023-03-21T08:02:28.031Z,8.20
2023-03-21T08:05:38.520Z,7.37
2023-03-21T08:08:42.377Z,7.70
2023-03-21T08:12:11.366Z,8.27
2023-03-21T08:15:15.877Z,8.30
2023-03-21T08:18:45.868Z,6.87
2023-03-21T08:21:51.094Z,6.67
2023-03-21T08:24:54.661Z,6.72
2023-03-21T08:28:00.835Z,6.82
2023-03-21T08:31:16.041Z,6.40
2023-03-21T08:38:02.407Z,6.00
2023-03-21T08:41:06.718Z,6.35
2023-03-21T08:44:11.223Z,6.30
2023-03-21T08:47:18.405Z,6.03
2023-03-21T08:50:30.459Z,6.33
2023-03-21T08:53:34.440Z,6.03
2023-03-21T08:56:40.993Z,6.10
2023-03-21T08:59:44.332Z,6.07
2023-03-21T09:02:49.719Z,5.70
2023-03-21T09:05:54.687Z,5.90
2023-03-21T09:09:09.456Z,5.50
2023-03-21T09:12:19.922Z,6.43
2023-03-21T09:15:35.569Z,5.68
2023-03-21T09:18:50.880Z,5.90
2023-03-21T09:21:57.786Z,5.10
2023-03-21T09:25:09.667Z,5.23
2023-03-21T09:28:16.865Z,5.72
2023-03-21T09:31:23.706Z,5.55
2023-03-21T09:34:28.517Z,5.57
2023-03-21T09:37:32.830Z,5.20
2023-03-21T09:40:56.063Z,5.87
2023-03-21T09:44:28.815Z,5.60
2023-03-21T09:47:37.748Z,3.53
2023-03-21T09:50:42.470Z,4.75
2023-03-21T09:53:49.578Z,3.80
2023-03-21T09:57:00.708Z,5.17
2023-03-21T10:00:11.351Z,6.18
2023-03-21T10:03:29.422Z,4.85
2023-03-21T10:06:40.726Z,5.47
2023-03-21T10:09:45.456Z,4.97
2023-03-21T10:12:56.748Z,3.87
2023-03-21T10:16:13.191Z,4.30
2023-03-21T10:19:19.749Z,4.43
2023-03-21T10:22:26.857Z,4.25
2023-03-21T10:25:37.542Z,3.90
2023-03-21T10:29:11.550Z,4.40
2023-03-21T10:32:38.412Z,4.07
2023-03-21T10:35:54.688Z,4.50
2023-03-21T10:39:04.750Z,3.60
2023-03-21T10:42:22.081Z,4.00
2023-03-21T10:45:28.784Z,4.00
2023-03-21T10:48:47.654Z,3.83
2023-03-21T10:51:55.856Z,3.45
2023-03-21T10:55:28.850Z,3.38
2023-03-21T10:58:39.712Z,3.40
2023-03-21T11:01:56.211Z,2.80
2023-03-21T11:06:02.495Z,2.60
2023-03-21T11:09:40.618Z,2.83
2023-03-21T11:13:17.168Z,2.45
2023-03-21T11:16:44.373Z,2.07
2023-03-21T11:23:40.107Z,1.58
2023-03-21T11:27:09.172Z,1.33
2023-03-21T11:30:25.459Z,1.33
2023-03-21T11:33:46.084Z,1.47
2023-03-21T11:36:52.337Z,1.30
2023-03-21T11:40:22.060Z,1.80
2023-03-21T11:43:34.801Z,1.65
2023-03-21T11:46:41.987Z,1.80
2023-03-21T11:49:49.655Z,1.70
2023-03-21T11:53:17.251Z,2.00
2023-03-21T11:56:42.811Z,2.20
2023-03-21T11:59:57.425Z,1.95
2023-03-21T12:03:46.910Z,2.25
2023-03-21T12:07:01.563Z,2.43
2023-03-21T12:10:31.945Z,1.90
2023-03-21T12:14:01.193Z,2.30
2023-03-21T12:17:16.788Z,2.70
2023-03-21T12:20:42.933Z,2.13
2023-03-21T12:24:08.993Z,1.43
2023-03-21T12:27:32.937Z,1.10
2023-03-21T12:30:54.570Z,1.17
2023-03-21T12:34:14.237Z,1.08
2023-03-21T12:37:18.010Z,0.98
2023-03-21T12:40:37.553Z,0.90
2023-03-21T12:43:50.568Z,1.20
2023-03-21T12:46:53.817Z,1.42
2023-03-21T12:49:59.378Z,1.30
2023-03-21T12:53:28.106Z,1.10
2023-03-21T12:56:39.483Z,1.50
2023-03-21T12:59:52.545Z,1.33
2023-03-21T13:03:20.915Z,1.23
2023-03-21T13:06:27.560Z,1.52
2023-03-21T13:09:38.567Z,1.80
2023-03-21T13:12:56.959Z,2.30
2023-03-21T13:16:03.007Z,1.20
2023-03-21T13:19:29.452Z,1.35
2023-03-21T13:22:32.847Z,1.90
2023-03-21T13:25:42.244Z,1.58
2023-03-21T13:28:48.697Z,1.20
2023-03-21T13:31:57.170Z,0.77
2023-03-21T13:35:02.304Z,0.70
2023-03-21T13:38:12.964Z,0.60
2023-03-21T13:41:18.368Z,0.60
2023-03-21T13:44:50.950Z,0.80
2023-03-21T13:47:55.189Z,0.90
2023-03-21T13:51:02.034Z,1.00
2023-03-21T13:54:05.378Z,0.80
2023-03-21T13:57:20.959Z,0.90
2023-03-21T14:00:30.220Z,0.70
2023-03-21T14:03:35.664Z,0.70
2023-03-21T14:06:43.086Z,0.60
2023-03-21T14:09:48.466Z,0.70
2023-03-21T14:12:53.214Z,0.90
2023-03-21T14:16:06.610Z,1.10
2023-03-21T14:19:12.063Z,0.90
2023-03-21T14:22:15.803Z,1.13
2023-03-21T14:25:23.243Z,0.85
2023-03-21T14:28:32.904Z,0.93
2023-03-21T14:31:36.820Z,1.00
2023-03-21T14:34:43.109Z,1.20
2023-03-21T14:37:47.778Z,0.93
2023-03-21T14:40:55.007Z,1.20
2023-03-21T14:44:16.715Z,0.82
2023-03-21T14:47:28.859Z,1.00
2023-03-21T14:50:51.038Z,0.90
2023-03-21T14:53:54.458Z,1.30
2023-03-21T14:57:01.597Z,1.00
2023-03-21T15:00:14.734Z,0.93
2023-03-21T15:03:22.080Z,1.07
2023-03-21T15:06:28.043Z,0.60
2023-03-21T15:09:36.192Z,0.60
2023-03-21T15:12:51.443Z,0.63
2023-03-21T15:15:55.585Z,0.63
2023-03-21T15:19:00.051Z,1.10
2023-03-21T15:22:13.611Z,0.80
2023-03-21T15:25:22.429Z,0.63
2023-03-21T15:28:26.936Z,0.70
2023-03-21T15:31:35.142Z,0.80
2023-03-21T15:34:38.823Z,1.00
2023-03-21T15:37:42.752Z,0.70
2023-03-21T15:40:46.194Z,0.80
2023-03-21T15:44:08.616Z,0.80
2023-03-21T15:47:14.157Z,0.63
2023-03-21T15:50:29.633Z,0.80
2023-03-21T15:53:36.256Z,0.70
2023-03-21T15:56:42.384Z,0.43
2023-03-21T15:59:47.851Z,0.70
2023-03-21T16:02:58.135Z,0.50
2023-03-21T16:06:14.513Z,0.93
2023-03-21T16:09:22.188Z,0.50
2023-03-21T16:12:28.937Z,0.80
2023-03-21T16:15:32.957Z,0.82
2023-03-21T16:18:36.383Z,0.52
2023-03-21T16:21:41.946Z,1.17
2023-03-21T16:24:45.236Z,1.10
2023-03-21T16:27:49.008Z,0.85
2023-03-21T16:30:52.572Z,0.90
2023-03-21T16:33:56.031Z,1.30
2023-03-21T16:36:59.522Z,1.03
2023-03-21T16:40:05.894Z,0.93
2023-03-21T16:43:09.669Z,1.30
2023-03-21T16:46:18.100Z,1.10
2023-03-21T16:49:24.900Z,1.20
2023-03-21T16:52:28.555Z,1.70
2023-03-21T16:55:33.697Z,1.50
2023-03-21T16:58:37.081Z,1.30
2023-03-21T17:01:41.547Z,1.20
2023-03-21T17:04:45.073Z,2.00
2023-03-21T17:07:48.583Z,1.43
2023-03-21T17:10:52.263Z,2.37
2023-03-21T17:13:56.172Z,1.80
2023-03-21T17:16:59.464Z,2.00
2023-03-21T17:20:11.886Z,1.45
2023-03-21T17:23:15.317Z,2.73
2023-03-21T17:26:23.001Z,1.40
2023-03-21T17:29:26.280Z,2.38
2023-03-21T17:32:29.549Z,2.30
2023-03-21T17:35:32.949Z,1.90
2023-03-21T17:38:38.094Z,2.50
2023-03-21T17:41:41.579Z,2.20
2023-03-21T17:44:45.339Z,2.20
2023-03-21T17:47:49.246Z,2.30
2023-03-21T17:50:52.765Z,2.42
2023-03-21T17:53:57.452Z,1.80
2023-03-21T17:57:01.063Z,1.73
2023-03-21T18:00:12.297Z,1.42
2023-03-21T18:03:17.196Z,1.60
2023-03-21T18:06:24.212Z,1.80
2023-03-21T18:09:27.752Z,1.63
2023-03-21T18:12:31.264Z,1.40
2023-03-21T18:15:38.082Z,2.20
2023-03-21T18:18:42.605Z,1.90
2023-03-21T18:21:46.565Z,2.20
2023-03-21T18:24:50.110Z,3.23
2023-03-21T18:28:09.869Z,2.50
2023-03-21T18:31:19.749Z,2.38
2023-03-21T18:34:23.736Z,2.35
2023-03-21T18:37:30.899Z,2.33
2023-03-21T18:40:35.684Z,2.07
2023-03-21T18:47:03.780Z,2.47
2023-03-21T18:50:14.592Z,2.40
2023-03-21T18:53:18.751Z,2.50
2023-03-21T18:57:13.129Z,2.27
2023-03-21T18:59:45.815Z,3.20
2023-03-21T19:03:02.322Z,3.13
2023-03-21T19:06:15.695Z,2.30
2023-03-21T19:09:29.100Z,2.22
2023-03-21T19:12:35.258Z,2.20
2023-03-21T19:15:41.333Z,2.23
2023-03-21T19:18:54.451Z,2.63
2023-03-21T19:22:00.774Z,2.88
2023-03-21T19:25:05.630Z,3.25
2023-03-21T19:28:09.924Z,3.17
2023-03-21T19:31:13.706Z,3.20
2023-03-21T19:34:17.818Z,3.05
2023-03-21T19:37:22.195Z,3.13
2023-03-21T19:40:25.889Z,3.20
2023-03-21T19:43:33.137Z,2.73
2023-03-21T19:46:37.170Z,2.80
2023-03-21T19:53:05.764Z,3.03
2023-03-21T19:56:21.812Z,2.90
2023-03-21T19:59:28.515Z,2.60
2023-03-21T20:02:35.923Z,2.63
2023-03-21T20:05:40.922Z,2.65
2023-03-21T20:12:10.651Z,2.80
2023-03-21T20:15:20.899Z,2.63
2023-03-21T20:18:26.482Z,3.37
2023-03-21T20:21:40.176Z,3.60
2023-03-21T20:24:48.689Z,2.60
2023-03-21T20:28:10.915Z,2.67
2023-03-21T20:31:17.935Z,2.50
2023-03-21T20:34:24.001Z,2.67
2023-03-21T20:37:27.623Z,2.47
2023-03-21T20:40:31.378Z,3.35
2023-03-21T20:47:00.124Z,2.70
2023-03-21T20:50:06.161Z,2.50
2023-03-21T20:53:10.286Z,3.17
2023-03-21T20:56:13.794Z,3.30
2023-03-21T20:59:26.122Z,2.95
2023-03-21T21:02:30.858Z,3.27
2023-03-21T21:05:35.056Z,2.65
2023-03-21T21:08:39.661Z,3.08
2023-03-21T21:12:06.280Z,3.22
2023-03-21T21:15:09.651Z,3.65
2023-03-21T21:18:13.451Z,4.10
2023-03-21T21:21:17.677Z,4.30
2023-03-21T21:24:20.982Z,4.05
2023-03-21T21:27:24.232Z,3.95
2023-03-21T21:30:29.500Z,3.95
2023-03-21T21:33:34.336Z,4.10
2023-03-21T21:36:37.865Z,4.07
2023-03-21T21:39:42.134Z,3.88
2023-03-21T21:42:45.534Z,3.88
2023-03-21T21:45:49.851Z,3.80
2023-03-21T21:48:53.293Z,3.50
2023-03-21T21:51:59.851Z,3.75
2023-03-21T21:55:04.197Z,3.60
2023-03-21T21:58:08.560Z,3.30
2023-03-21T22:01:11.981Z,3.72
2023-03-21T22:04:18.083Z,3.53
2023-03-21T22:07:22.221Z,3.20
2023-03-21T22:10:27.447Z,3.75
2023-03-21T22:13:30.804Z,3.42
2023-03-21T22:16:34.088Z,3.78
2023-03-21T22:19:39.783Z,4.00
2023-03-21T22:22:43.563Z,3.90
2023-03-21T22:25:51.767Z,4.18
2023-03-21T22:28:55.154Z,4.10
2023-03-21T22:31:59.285Z,4.47
2023-03-21T22:35:03.188Z,3.97
2023-03-21T22:38:06.495Z,4.60
2023-03-21T22:41:09.909Z,4.13
2023-03-21T22:44:13.764Z,4.60
2023-03-21T22:47:17.062Z,4.22
2023-03-21T22:50:20.385Z,4.27
2023-03-21T22:53:24.532Z,3.30
2023-03-21T22:56:28.082Z,3.60
2023-03-21T22:59:32.247Z,3.65
2023-03-21T23:02:35.556Z,4.15
2023-03-21T23:05:42.791Z,3.57
2023-03-21T23:08:46.497Z,3.78
2023-03-21T23:11:50.591Z,3.85
2023-03-21T23:14:53.868Z,4.10
2023-03-21T23:17:57.149Z,4.00
2023-03-21T23:21:01.320Z,4.13
2023-03-21T23:24:07.114Z,4.25
2023-03-21T23:27:10.672Z,4.55
2023-03-21T23:30:14.200Z,4.22
2023-03-21T23:33:32.933Z,4.90
2023-03-21T23:36:36.698Z,4.80
2023-03-21T23:39:41.846Z,4.57
2023-03-21T23:42:45.389Z,5.40
2023-03-21T23:45:49.077Z,4.65
2023-03-21T23:48:52.676Z,4.78
2023-03-21T23:51:56.275Z,4.83
2023-03-21T23:54:59.563Z,5.10
2023-03-21T23:58:04.396Z,5.40
